Yuma, Arizona
Current Conditions -  °F | °C
As of 5:57 AM on Wednesday 26 Nov 2014 (Local Time) from KNYL Reporting Station
Clear Clear  
Wind Chill: 52°   Ceiling: Unl
Heat Index: 52°   Visibility: 10mi
Dew Point: 17°   Wind: 6mph
Humidity: 25%   Direction: 80°E
Pressure: 30.26"   Gusts: NA
Location:  32.68°N, 114.62°W
Report Text: KNYL 261257Z 08005KT 10SM CLR 11/M08 A3026 RMK AO2 SLP247 T01111083
Loading
Personal Weather Stations






























Interactive Weather Map New forecast layout! Learn more

10-Day Weather Forecast

Advertisements
Track Severe Weather on mobile